Time;durP1;ratioP1;P1;durP2;ratioP2;P2;SDS_P1;SDS_P2;PMS_P1;PMS_P2;Temp;Humidity;BMP_temperature;BMP_pressure;BME280_temperature;BME280_humidity;BME280_pressure;Samples;Min_cycle;Max_cycle;Signal;HPM_P1;HPM_P2
2023/07/13 00:01:49;;;;;;;16.80;12.32;;;19.00;99.90;;;;;;4177803;28;20028;-61
2023/07/13 00:03:50;;;;;;;14.45;9.65;;;19.10;99.90;;;;;;4178110;28;20112;-61
2023/07/13 00:05:59;;;;;;;17.90;12.52;;;19.10;99.90;;;;;;4176686;28;20041;-62
2023/07/13 00:08:00;;;;;;;16.25;12.73;;;19.20;99.90;;;;;;4177342;28;20045;-61
2023/07/13 00:10:03;;;;;;;15.82;12.27;;;19.20;99.90;;;;;;4177164;28;20393;-61
2023/07/13 00:12:06;;;;;;;17.65;11.73;;;19.20;99.90;;;;;;4178961;28;20090;-62
2023/07/13 00:14:09;;;;;;;14.75;11.02;;;19.20;99.90;;;;;;4176997;28;20025;-66
2023/07/13 00:16:13;;;;;;;14.13;11.40;;;19.00;99.90;;;;;;4178341;28;20375;-61
2023/07/13 00:18:14;;;;;;;13.35;11.48;;;18.80;99.90;;;;;;4177482;28;20036;-63
2023/07/13 00:20:16;;;;;;;14.25;11.52;;;18.60;99.90;;;;;;4178508;28;20079;-60
2023/07/13 00:22:17;;;;;;;16.90;12.02;;;18.50;99.90;;;;;;4176906;28;20090;-61
2023/07/13 00:24:23;;;;;;;15.85;12.02;;;18.30;99.90;;;;;;4178531;28;20033;-61
2023/07/13 00:26:24;;;;;;;17.27;12.32;;;18.20;99.90;;;;;;4177612;28;20409;-61
2023/07/13 00:28:25;;;;;;;18.60;13.18;;;18.20;99.90;;;;;;4178974;28;20036;-62
2023/07/13 00:30:26;;;;;;;14.73;11.55;;;18.10;99.90;;;;;;4177648;28;20033;-61
2023/07/13 00:32:28;;;;;;;15.95;11.88;;;18.10;99.90;;;;;;4177978;28;20045;-61
2023/07/13 00:34:30;;;;;;;17.55;11.52;;;18.20;99.90;;;;;;4177378;28;20086;-61
2023/07/13 00:36:31;;;;;;;16.85;12.05;;;18.30;99.90;;;;;;4177901;28;20477;-63
2023/07/13 00:38:32;;;;;;;16.17;12.75;;;18.40;99.90;;;;;;4177494;28;20741;-62
2023/07/13 00:40:34;;;;;;;17.88;13.32;;;18.40;99.90;;;;;;4177952;28;20033;-62
2023/07/13 00:42:35;;;;;;;15.45;12.73;;;18.50;99.90;;;;;;4178496;28;20056;-60
2023/07/13 00:44:36;;;;;;;14.43;11.80;;;18.40;99.90;;;;;;4177474;28;20480;-61
2023/07/13 00:46:37;;;;;;;12.45;10.75;;;18.50;99.90;;;;;;4177018;28;20037;-60
2023/07/13 00:48:39;;;;;;;15.73;12.07;;;18.60;99.90;;;;;;4176720;28;20036;-61
2023/07/13 00:50:43;;;;;;;15.02;11.57;;;18.60;99.90;;;;;;4176776;28;20102;-61
2023/07/13 00:52:49;;;;;;;13.88;11.25;;;18.60;99.90;;;;;;4176566;28;20053;-61
2023/07/13 00:54:50;;;;;;;12.80;11.35;;;18.60;99.90;;;;;;4178801;28;20025;-61
2023/07/13 00:56:55;;;;;;;15.20;11.98;;;18.60;99.90;;;;;;4177503;28;20420;-61
2023/07/13 00:58:57;;;;;;;17.67;11.38;;;18.50;99.90;;;;;;4177476;28;20076;-61
2023/07/13 01:00:58;;;;;;;13.23;11.77;;;18.40;99.90;;;;;;4177214;28;20432;-62
2023/07/13 01:03:04;;;;;;;18.70;12.60;;;18.40;99.90;;;;;;4178126;28;20155;-61
2023/07/13 01:05:19;;;;;;;16.83;11.75;;;18.30;99.90;;;;;;4176699;28;20067;-61
2023/07/13 01:07:20;;;;;;;17.33;11.73;;;18.30;99.90;;;;;;4178123;28;20311;-65
2023/07/13 01:09:21;;;;;;;15.95;12.20;;;18.20;99.90;;;;;;4176684;28;20060;-62
2023/07/13 01:11:22;;;;;;;15.90;12.52;;;18.20;99.90;;;;;;4177672;28;20102;-62
2023/07/13 01:13:24;;;;;;;11.82;10.60;;;18.30;99.90;;;;;;4176607;28;20452;-61
2023/07/13 01:15:37;;;;;;;13.93;11.88;;;18.30;99.90;;;;;;4177914;28;20089;-61
2023/07/13 01:17:39;;;;;;;16.38;11.88;;;18.30;99.90;;;;;;4176237;28;20037;-62
2023/07/13 01:19:43;;;;;;;15.43;12.02;;;18.40;99.90;;;;;;4177336;28;20041;-62
2023/07/13 01:21:50;;;;;;;13.77;11.25;;;18.40;99.90;;;;;;4176949;28;20399;-64
2023/07/13 01:23:52;;;;;;;11.27;10.07;;;18.40;99.90;;;;;;4176330;28;20045;-62
2023/07/13 01:25:55;;;;;;;15.30;9.95;;;18.40;99.90;;;;;;4177495;28;20473;-66
2023/07/13 01:27:56;;;;;;;18.17;11.10;;;18.40;99.90;;;;;;4176316;28;20044;-64
2023/07/13 01:30:03;;;;;;;13.95;10.90;;;18.40;99.90;;;;;;4177232;28;20071;-62
2023/07/13 01:32:04;;;;;;;12.13;10.88;;;18.40;99.90;;;;;;4176587;28;20041;-62
2023/07/13 01:34:05;;;;;;;14.65;11.20;;;18.30;99.90;;;;;;4177267;28;20114;-61
2023/07/13 01:36:09;;;;;;;14.43;11.18;;;18.30;99.90;;;;;;4176567;28;20063;-60
2023/07/13 01:38:11;;;;;;;15.18;11.43;;;18.20;99.90;;;;;;4177039;28;20590;-61
2023/07/13 01:40:12;;;;;;;16.50;12.32;;;18.20;99.90;;;;;;4176437;28;20470;-61
2023/07/13 01:42:14;;;;;;;19.30;12.82;;;18.20;99.90;;;;;;4176979;28;20379;-61
2023/07/13 01:44:15;;;;;;;19.58;11.88;;;18.20;99.90;;;;;;4176664;28;20110;-61
2023/07/13 01:46:17;;;;;;;17.95;13.10;;;18.20;99.90;;;;;;4177448;28;20044;-60
2023/07/13 01:48:18;;;;;;;16.63;12.98;;;18.10;99.90;;;;;;4175501;28;20045;-61
2023/07/13 01:50:19;;;;;;;15.13;12.68;;;18.00;99.90;;;;;;4177249;28;20091;-61
2023/07/13 01:52:20;;;;;;;20.33;11.75;;;18.00;99.90;;;;;;4175848;28;20049;-60
2023/07/13 01:54:21;;;;;;;19.83;15.65;;;17.90;99.90;;;;;;4177175;28;20443;-61
2023/07/13 01:56:23;;;;;;;20.45;14.48;;;17.90;99.90;;;;;;4176639;28;20079;-61
2023/07/13 01:58:24;;;;;;;22.00;15.27;;;17.90;99.90;;;;;;4176064;28;20108;-60
2023/07/13 02:00:25;;;;;;;17.73;13.70;;;18.00;99.90;;;;;;4176023;28;20443;-61
2023/07/13 02:02:26;;;;;;;18.85;14.65;;;18.00;99.90;;;;;;4175271;28;20091;-61
2023/07/13 02:04:27;;;;;;;19.52;12.60;;;18.00;99.90;;;;;;4177293;28;20037;-61
2023/07/13 02:06:28;;;;;;;19.75;13.63;;;18.00;99.90;;;;;;4174346;28;20048;-61
2023/07/13 02:08:32;;;;;;;20.27;13.60;;;18.00;99.90;;;;;;4163076;28;20083;-60
2023/07/13 02:10:33;;;;;;;71.47;16.90;;;17.90;99.90;;;;;;4176091;28;20044;-62
2023/07/13 02:12:35;;;;;;;27.65;16.73;;;17.90;99.90;;;;;;4177201;28;20053;-61
2023/07/13 02:14:36;;;;;;;60.42;20.00;;;17.90;99.90;;;;;;4176330;28;20389;-61
2023/07/13 02:16:37;;;;;;;90.93;19.73;;;17.80;99.90;;;;;;4177047;28;20033;-61
2023/07/13 02:18:38;;;;;;;118.72;20.05;;;17.80;99.90;;;;;;4174918;28;20029;-62
2023/07/13 02:20:39;;;;;;;82.53;19.23;;;17.70;99.90;;;;;;4176611;28;20410;-61
2023/07/13 02:22:41;;;;;;;97.63;21.33;;;17.70;99.90;;;;;;4176265;28;20029;-61
2023/07/13 02:24:42;;;;;;;35.55;19.08;;;17.70;99.90;;;;;;4176241;28;20079;-63
2023/07/13 02:26:44;;;;;;;36.22;17.67;;;17.70;99.90;;;;;;4176302;28;20489;-60
2023/07/13 02:28:45;;;;;;;42.53;19.30;;;17.70;99.90;;;;;;4175690;28;20041;-61
2023/07/13 02:30:46;;;;;;;29.65;17.15;;;17.70;99.90;;;;;;4176635;28;20029;-61
2023/07/13 02:32:47;;;;;;;35.85;18.15;;;17.80;99.90;;;;;;4176120;28;20075;-61
2023/07/13 02:34:48;;;;;;;36.42;19.52;;;17.80;99.90;;;;;;4177011;28;20088;-61
2023/07/13 02:36:49;;;;;;;82.70;20.85;;;17.90;99.90;;;;;;4176105;28;20033;-61
2023/07/13 02:38:51;;;;;;;57.08;20.75;;;17.90;99.90;;;;;;4176972;28;20029;-61
2023/07/13 02:40:52;;;;;;;56.17;20.40;;;17.90;99.90;;;;;;4175639;28;20427;-61
2023/07/13 02:42:53;;;;;;;43.53;21.63;;;17.80;99.90;;;;;;4177600;28;20037;-62
2023/07/13 02:44:54;;;;;;;69.50;22.23;;;17.80;99.90;;;;;;4175148;28;20041;-61
2023/07/13 02:46:55;;;;;;;40.10;21.10;;;17.70;99.90;;;;;;4176891;28;20032;-61
2023/07/13 02:48:56;;;;;;;40.47;22.02;;;17.70;99.90;;;;;;4175747;28;20448;-62
2023/07/13 02:50:57;;;;;;;41.35;21.30;;;17.70;99.90;;;;;;4176103;28;20064;-61
2023/07/13 02:52:58;;;;;;;56.75;22.63;;;17.60;99.90;;;;;;4175246;28;20110;-62
2023/07/13 02:55:00;;;;;;;48.28;23.17;;;17.70;99.90;;;;;;4176491;28;20094;-62
2023/07/13 02:57:01;;;;;;;36.30;21.45;;;17.70;99.90;;;;;;4176388;28;20380;-62
2023/07/13 02:59:02;;;;;;;63.63;21.33;;;17.70;99.90;;;;;;4176012;28;20079;-62
2023/07/13 03:01:08;;;;;;;37.70;20.77;;;17.70;99.90;;;;;;4176200;28;20034;-62
2023/07/13 03:03:10;;;;;;;45.33;22.65;;;17.70;99.90;;;;;;4175511;28;20033;-61
2023/07/13 03:05:12;;;;;;;41.38;21.38;;;17.70;99.90;;;;;;4176742;28;20078;-61
2023/07/13 03:07:13;;;;;;;37.42;20.45;;;17.70;99.90;;;;;;4176198;28;20079;-62
2023/07/13 03:09:14;;;;;;;75.03;23.00;;;17.80;99.90;;;;;;4176457;28;20049;-61
2023/07/13 03:11:18;;;;;;;42.92;24.55;;;17.80;99.90;;;;;;4175355;28;20559;-62
2023/07/13 03:13:19;;;;;;;59.63;21.63;;;17.80;99.90;;;;;;4174546;28;20087;-62
2023/07/13 03:15:21;;;;;;;39.28;20.30;;;17.80;99.90;;;;;;4178415;28;20045;-62
2023/07/13 03:17:22;;;;;;;36.10;20.83;;;17.80;99.90;;;;;;4172172;28;20041;-63
2023/07/13 03:19:23;;;;;;;33.15;19.60;;;17.80;99.90;;;;;;4178835;28;20037;-62
2023/07/13 03:21:25;;;;;;;54.67;20.55;;;17.80;99.90;;;;;;4162133;28;20029;-62
2023/07/13 03:23:27;;;;;;;81.00;20.25;;;17.90;99.90;;;;;;4178558;28;20078;-62
2023/07/13 03:25:28;;;;;;;62.85;20.00;;;17.80;99.90;;;;;;4179572;28;20037;-62
2023/07/13 03:27:29;;;;;;;48.60;19.83;;;17.70;99.90;;;;;;4178880;28;20078;-60
2023/07/13 03:29:30;;;;;;;73.70;20.77;;;17.80;99.90;;;;;;4178087;28;20547;-61
2023/07/13 03:31:34;;;;;;;98.72;20.33;;;17.80;99.90;;;;;;4178418;28;20044;-61
2023/07/13 03:33:36;;;;;;;72.43;22.33;;;17.80;99.90;;;;;;4177201;28;20091;-61
2023/07/13 03:35:41;;;;;;;148.93;22.95;;;17.70;99.90;;;;;;4179410;28;20025;-60
2023/07/13 03:37:42;;;;;;;97.47;24.95;;;17.80;99.90;;;;;;4178669;28;20074;-62
2023/07/13 03:39:43;;;;;;;64.30;25.23;;;17.80;99.90;;;;;;4179646;28;20025;-61
2023/07/13 03:41:44;;;;;;;104.03;30.00;;;17.80;99.90;;;;;;4178173;28;20107;-60
2023/07/13 03:43:47;;;;;;;208.50;30.67;;;17.90;99.90;;;;;;4178948;28;20095;-59
2023/07/13 03:45:48;;;;;;;60.45;29.70;;;17.90;99.90;;;;;;4178570;28;20021;-61
2023/07/13 03:47:49;;;;;;;128.30;32.15;;;17.90;99.90;;;;;;4179532;28;20055;-61
2023/07/13 03:49:50;;;;;;;67.95;28.95;;;17.90;99.90;;;;;;4176485;28;20053;-61
2023/07/13 03:51:52;;;;;;;68.05;28.92;;;18.00;99.90;;;;;;4179623;28;20032;-61
2023/07/13 03:53:53;;;;;;;81.80;30.27;;;18.10;99.90;;;;;;4177823;28;20095;-61
2023/07/13 03:55:54;;;;;;;67.18;31.13;;;18.10;99.90;;;;;;4179398;28;20748;-62
2023/07/13 03:58:00;;;;;;;80.07;29.85;;;18.20;99.90;;;;;;4178499;28;20021;-62
2023/07/13 04:00:02;;;;;;;75.35;28.85;;;18.20;99.90;;;;;;4178985;28;20435;-63
2023/07/13 04:02:04;;;;;;;118.75;28.70;;;18.20;99.90;;;;;;4178269;28;20373;-61
2023/07/13 04:04:06;;;;;;;72.60;24.88;;;18.20;99.90;;;;;;4178160;28;20049;-61
2023/07/13 04:06:14;;;;;;;65.50;27.90;;;18.20;99.90;;;;;;4178744;28;20090;-62
2023/07/13 04:08:16;;;;;;;121.65;23.95;;;18.20;99.90;;;;;;4178752;28;20075;-61
2023/07/13 04:10:17;;;;;;;48.10;22.45;;;18.20;99.90;;;;;;4178104;28;20052;-63
2023/07/13 04:12:18;;;;;;;84.07;24.95;;;18.20;99.90;;;;;;4177396;28;20122;-57
2023/07/13 04:14:19;;;;;;;106.57;25.52;;;18.20;99.90;;;;;;4179181;28;20146;-61
2023/07/13 04:16:21;;;;;;;54.45;23.80;;;18.20;99.90;;;;;;4177125;28;20608;-61
2023/07/13 04:18:22;;;;;;;60.50;24.92;;;18.20;99.90;;;;;;4178239;28;20110;-60
2023/07/13 04:20:25;;;;;;;44.42;24.45;;;18.30;99.90;;;;;;4168152;28;20372;-61
2023/07/13 04:22:26;;;;;;;47.42;23.30;;;18.30;99.90;;;;;;4177752;28;20032;-61
2023/07/13 04:24:27;;;;;;;63.80;24.33;;;18.40;99.90;;;;;;4177622;28;20021;-61
2023/07/13 04:26:29;;;;;;;62.67;26.02;;;18.40;99.90;;;;;;4177848;28;20037;-60
2023/07/13 04:28:30;;;;;;;81.47;25.05;;;18.40;99.90;;;;;;4178142;28;20619;-60
2023/07/13 04:30:32;;;;;;;49.47;25.48;;;18.40;99.90;;;;;;4178887;28;20069;-61
2023/07/13 04:32:33;;;;;;;51.88;24.30;;;18.50;99.90;;;;;;4178083;28;21136;-61
2023/07/13 04:34:34;;;;;;;48.42;23.27;;;18.50;99.90;;;;;;4178026;28;20053;-61
2023/07/13 04:36:37;;;;;;;47.22;23.02;;;18.60;99.90;;;;;;4159850;28;20068;-61
2023/07/13 04:38:38;;;;;;;73.70;20.02;;;18.60;99.90;;;;;;4178069;28;20033;-61
2023/07/13 04:40:39;;;;;;;67.20;20.85;;;18.60;99.90;;;;;;4178023;28;20531;-61
2023/07/13 04:42:41;;;;;;;71.63;21.77;;;18.60;99.90;;;;;;4177453;28;20087;-61
2023/07/13 04:44:42;;;;;;;71.65;20.20;;;18.60;99.90;;;;;;4178094;28;20481;-60
2023/07/13 04:46:43;;;;;;;44.78;19.92;;;18.50;99.90;;;;;;4175084;28;20049;-59
2023/07/13 04:48:44;;;;;;;51.17;20.83;;;18.60;99.90;;;;;;4161490;28;20093;-61
2023/07/13 04:50:46;;;;;;;57.38;21.80;;;18.50;99.90;;;;;;4160928;28;20033;-60
2023/07/13 04:52:48;;;;;;;34.30;19.58;;;18.60;99.90;;;;;;4161644;28;20041;-63
2023/07/13 04:54:49;;;;;;;42.42;20.95;;;18.60;99.90;;;;;;4165168;28;20021;-61
2023/07/13 04:56:50;;;;;;;41.05;23.05;;;18.70;99.90;;;;;;4175980;28;20477;-61
2023/07/13 04:58:52;;;;;;;43.47;20.60;;;18.80;99.90;;;;;;4175697;28;20049;-61
2023/07/13 05:00:58;;;;;;;43.00;22.90;;;18.80;99.90;;;;;;4178151;28;20083;-62
2023/07/13 05:03:00;;;;;;;44.90;23.60;;;18.90;99.90;;;;;;4176052;28;20190;-61
2023/07/13 05:05:01;;;;;;;48.22;23.52;;;18.90;99.90;;;;;;4178193;28;20078;-61
2023/07/13 05:07:06;;;;;;;41.35;21.98;;;18.90;99.90;;;;;;4177253;28;20029;-61
2023/07/13 05:09:07;;;;;;;59.50;25.63;;;19.00;99.90;;;;;;4177874;28;20461;-60
2023/07/13 05:11:08;;;;;;;44.58;25.15;;;19.10;99.90;;;;;;4176581;28;20094;-60
2023/07/13 05:13:09;;;;;;;55.67;25.35;;;19.20;99.90;;;;;;4176796;28;20045;-61
2023/07/13 05:15:11;;;;;;;54.65;25.15;;;19.10;99.90;;;;;;4177721;28;20163;-61
2023/07/13 05:17:12;;;;;;;48.17;26.23;;;19.10;99.90;;;;;;4176933;28;20086;-61
2023/07/13 05:19:13;;;;;;;48.15;24.15;;;19.10;99.90;;;;;;4177787;28;20029;-61
2023/07/13 05:21:14;;;;;;;44.85;23.67;;;19.20;99.90;;;;;;4176816;28;20075;-60
2023/07/13 05:23:15;;;;;;;35.17;22.20;;;19.20;99.90;;;;;;4178027;28;20033;-61
2023/07/13 05:25:17;;;;;;;36.65;21.15;;;19.40;99.90;;;;;;4176691;28;20055;-61
2023/07/13 05:27:18;;;;;;;40.70;21.90;;;19.40;99.90;;;;;;4177740;28;20028;-60
2023/07/13 05:29:21;;;;;;;54.60;26.75;;;19.60;99.90;;;;;;4176768;28;20064;-61
2023/07/13 05:31:22;;;;;;;51.05;27.00;;;19.70;99.90;;;;;;4177008;28;20045;-61
2023/07/13 05:33:24;;;;;;;44.53;26.13;;;19.70;99.90;;;;;;4176147;28;20037;-60
2023/07/13 05:35:25;;;;;;;51.05;25.30;;;19.70;99.90;;;;;;4177695;28;20025;-61
2023/07/13 05:37:26;;;;;;;46.17;24.27;;;19.70;99.90;;;;;;4174872;28;20102;-62
2023/07/13 05:39:27;;;;;;;50.42;27.10;;;19.70;99.90;;;;;;4177379;28;20428;-63
2023/07/13 05:41:29;;;;;;;59.47;27.85;;;19.60;99.90;;;;;;4176740;28;20086;-61
2023/07/13 05:43:30;;;;;;;65.45;30.88;;;19.60;99.90;;;;;;4176367;28;20090;-62
2023/07/13 05:45:31;;;;;;;63.78;32.35;;;19.60;99.90;;;;;;4177229;28;20063;-61
2023/07/13 05:47:32;;;;;;;61.40;30.02;;;19.60;99.90;;;;;;4176495;28;20428;-61
2023/07/13 05:49:33;;;;;;;49.70;26.50;;;19.80;99.90;;;;;;4177664;28;20482;-62
2023/07/13 05:51:34;;;;;;;37.92;22.27;;;19.90;99.90;;;;;;4176459;28;20413;-61
2023/07/13 05:53:36;;;;;;;42.88;23.55;;;19.80;99.90;;;;;;4177515;28;20106;-61
2023/07/13 05:55:47;;;;;;;34.85;22.35;;;19.80;99.90;;;;;;4176401;28;20059;-61
2023/07/13 05:57:48;;;;;;;33.28;20.88;;;19.90;99.90;;;;;;4177509;28;20033;-60
2023/07/13 05:59:49;;;;;;;29.17;19.83;;;19.90;99.90;;;;;;4175275;28;20416;-60
2023/07/13 06:01:52;;;;;;;27.35;18.95;;;19.90;99.90;;;;;;4177515;28;20036;-62
2023/07/13 06:03:53;;;;;;;42.38;20.45;;;19.80;99.90;;;;;;4175712;28;20086;-61
2023/07/13 06:05:54;;;;;;;25.50;19.83;;;19.80;99.90;;;;;;4177345;28;20037;-61
2023/07/13 06:07:55;;;;;;;31.98;21.17;;;19.80;99.90;;;;;;4175380;28;20404;-61
2023/07/13 06:09:56;;;;;;;30.10;20.67;;;19.80;99.90;;;;;;4177067;28;20377;-62
2023/07/13 06:11:57;;;;;;;27.50;21.05;;;19.70;99.90;;;;;;4175507;28;20029;-60
2023/07/13 06:13:58;;;;;;;49.72;24.45;;;19.70;99.90;;;;;;4177169;28;20481;-62
2023/07/13 06:16:00;;;;;;;36.28;22.15;;;19.70;99.90;;;;;;4176807;28;20070;-61
2023/07/13 06:18:02;;;;;;;32.08;21.42;;;19.60;99.90;;;;;;4176454;28;20021;-60
2023/07/13 06:20:03;;;;;;;31.92;20.80;;;19.70;99.90;;;;;;4175823;28;20049;-61
2023/07/13 06:22:04;;;;;;;30.33;21.40;;;19.70;99.90;;;;;;4176231;28;20017;-60
2023/07/13 06:24:06;;;;;;;29.58;20.55;;;19.70;99.90;;;;;;4177398;28;20082;-62
2023/07/13 06:26:08;;;;;;;30.48;22.33;;;19.70;99.90;;;;;;4175263;28;20102;-61
2023/07/13 06:28:09;;;;;;;35.35;23.23;;;19.60;99.90;;;;;;4177527;28;20571;-61
2023/07/13 06:30:11;;;;;;;32.08;23.00;;;19.60;99.90;;;;;;4176384;28;20107;-62
2023/07/13 06:32:12;;;;;;;37.08;23.67;;;19.60;99.90;;;;;;4176317;28;20044;-61
2023/07/13 06:34:13;;;;;;;25.92;19.27;;;19.60;99.90;;;;;;4175309;28;20040;-61
2023/07/13 06:36:15;;;;;;;26.02;18.27;;;19.80;99.90;;;;;;4177268;28;20079;-60
2023/07/13 06:38:16;;;;;;;25.73;19.55;;;19.80;99.90;;;;;;4176201;28;20091;-60
2023/07/13 06:40:17;;;;;;;18.88;14.98;;;19.90;99.90;;;;;;4176948;28;20519;-60
2023/07/13 06:42:18;;;;;;;19.85;15.77;;;20.00;99.90;;;;;;4175357;28;20068;-60
2023/07/13 06:44:19;;;;;;;17.95;15.45;;;20.00;99.90;;;;;;4176416;28;20095;-61
2023/07/13 06:46:23;;;;;;;17.92;15.80;;;20.10;99.90;;;;;;4175727;28;20033;-61
2023/07/13 06:48:25;;;;;;;21.77;16.02;;;20.10;99.90;;;;;;4175941;28;20029;-60
2023/07/13 06:50:26;;;;;;;17.27;14.77;;;20.10;99.90;;;;;;4179081;28;20098;-61
2023/07/13 06:52:27;;;;;;;18.92;16.33;;;20.20;99.90;;;;;;4178533;28;20033;-62
2023/07/13 06:54:28;;;;;;;22.33;18.27;;;20.30;99.90;;;;;;4179258;28;20060;-62
2023/07/13 06:56:29;;;;;;;23.65;16.52;;;20.30;99.90;;;;;;4179352;28;20033;-62
2023/07/13 06:58:30;;;;;;;20.27;16.63;;;20.40;99.90;;;;;;4180447;28;20029;-61
2023/07/13 07:00:32;;;;;;;21.77;17.38;;;20.40;99.90;;;;;;4179293;28;20052;-62
2023/07/13 07:02:33;;;;;;;21.70;16.80;;;20.40;99.90;;;;;;4179494;28;20322;-62
2023/07/13 07:04:34;;;;;;;22.05;18.17;;;20.40;99.90;;;;;;4178945;28;20036;-62
2023/07/13 07:06:35;;;;;;;19.92;16.20;;;20.50;99.90;;;;;;4180116;28;20029;-62
2023/07/13 07:08:36;;;;;;;20.80;15.93;;;20.50;99.90;;;;;;4179007;28;20115;-62
2023/07/13 07:10:37;;;;;;;19.95;15.90;;;20.60;99.90;;;;;;4180349;28;20029;-62
2023/07/13 07:12:38;;;;;;;16.88;14.30;;;20.80;99.90;;;;;;4179017;28;20025;-61
2023/07/13 07:14:40;;;;;;;15.35;12.98;;;20.90;99.90;;;;;;4180137;28;20481;-63
2023/07/13 07:16:41;;;;;;;23.23;14.75;;;21.00;99.90;;;;;;4178556;28;20099;-62
2023/07/13 07:18:42;;;;;;;17.80;13.55;;;21.10;99.90;;;;;;4179137;28;20024;-61
2023/07/13 07:20:43;;;;;;;15.40;13.75;;;21.30;99.90;;;;;;4179608;28;20041;-61
2023/07/13 07:22:44;;;;;;;15.48;13.82;;;21.40;99.90;;;;;;4178914;28;20029;-61
2023/07/13 07:24:45;;;;;;;15.65;13.55;;;21.40;99.90;;;;;;4179831;28;20469;-61
2023/07/13 07:26:46;;;;;;;16.33;14.48;;;21.50;99.90;;;;;;4178781;28;20047;-61
2023/07/13 07:28:47;;;;;;;17.67;15.25;;;21.40;99.90;;;;;;4179053;28;20052;-62
2023/07/13 07:30:52;;;;;;;17.73;14.60;;;21.50;99.90;;;;;;4178447;28;20094;-60
2023/07/13 07:32:53;;;;;;;18.73;15.02;;;21.60;99.90;;;;;;4179489;28;20033;-60
2023/07/13 07:34:54;;;;;;;15.88;13.95;;;21.70;99.90;;;;;;4177351;28;20094;-61
2023/07/13 07:36:59;;;;;;;16.55;14.75;;;21.80;99.90;;;;;;4179710;28;20033;-61
2023/07/13 07:39:00;;;;;;;17.52;15.02;;;21.90;99.90;;;;;;4178433;28;20041;-61
2023/07/13 07:41:05;;;;;;;16.00;14.30;;;22.00;99.90;;;;;;4179460;28;20082;-62
2023/07/13 07:43:10;;;;;;;18.15;13.80;;;22.40;99.90;;;;;;4178356;28;20397;-61
2023/07/13 07:45:11;;;;;;;19.25;14.43;;;22.50;99.90;;;;;;4179757;28;20037;-61
2023/07/13 07:47:12;;;;;;;19.35;14.65;;;22.80;99.90;;;;;;4177399;28;20079;-61
2023/07/13 07:49:14;;;;;;;15.35;13.20;;;23.00;99.90;;;;;;4178928;28;20032;-61
2023/07/13 07:51:15;;;;;;;15.27;13.38;;;23.40;99.90;;;;;;4178517;28;20033;-61
2023/07/13 07:53:16;;;;;;;17.88;14.25;;;23.40;99.90;;;;;;4177903;28;20041;-62
2023/07/13 07:55:17;;;;;;;18.08;13.90;;;23.60;99.90;;;;;;4178946;28;20044;-61
2023/07/13 07:57:18;;;;;;;15.50;13.82;;;23.80;99.90;;;;;;4178256;28;20098;-61
2023/07/13 07:59:20;;;;;;;20.10;14.55;;;23.90;99.90;;;;;;4179037;28;20114;-64
2023/07/13 08:01:21;;;;;;;15.88;13.23;;;24.00;99.90;;;;;;4176906;28;20063;-60
2023/07/13 08:03:23;;;;;;;14.88;13.38;;;24.10;99.90;;;;;;4178585;28;20037;-62
2023/07/13 08:05:24;;;;;;;15.38;13.52;;;24.20;99.90;;;;;;4177869;28;20036;-60
2023/07/13 08:07:25;;;;;;;16.95;13.20;;;24.30;99.90;;;;;;4178604;28;20374;-62
2023/07/13 08:09:26;;;;;;;17.42;14.35;;;24.50;99.90;;;;;;4176946;28;20049;-61
2023/07/13 08:11:27;;;;;;;14.68;12.60;;;24.60;99.90;;;;;;4179061;28;20087;-60
2023/07/13 08:13:29;;;;;;;17.45;14.27;;;24.90;99.90;;;;;;4177051;28;20492;-61
2023/07/13 08:15:30;;;;;;;18.92;13.07;;;25.20;99.90;;;;;;4179251;28;20431;-61
2023/07/13 08:17:31;;;;;;;14.40;11.98;;;25.10;99.90;;;;;;4177142;28;20086;-62
2023/07/13 08:19:32;;;;;;;13.85;12.43;;;25.00;99.90;;;;;;4178527;28;20793;-61
2023/07/13 08:21:33;;;;;;;15.15;12.82;;;25.20;99.90;;;;;;4178033;28;20029;-62
2023/07/13 08:23:35;;;;;;;12.32;10.80;;;25.40;99.90;;;;;;4177604;28;20071;-63
2023/07/13 08:25:37;;;;;;;14.00;11.43;;;25.60;99.90;;;;;;4178282;28;20079;-62
2023/07/13 08:27:38;;;;;;;19.92;11.68;;;25.60;99.90;;;;;;4177916;28;20033;-62
2023/07/13 08:29:39;;;;;;;15.23;11.23;;;25.60;99.90;;;;;;4178699;28;20024;-62
2023/07/13 08:31:40;;;;;;;12.73;10.60;;;25.60;99.90;;;;;;4176842;28;20068;-63
2023/07/13 08:33:41;;;;;;;14.77;9.98;;;25.80;99.90;;;;;;4178528;28;20501;-62
2023/07/13 08:35:45;;;;;;;13.30;9.02;;;25.90;99.90;;;;;;4176770;28;20155;-62
2023/07/13 08:37:46;;;;;;;16.00;10.60;;;26.10;99.90;;;;;;4178503;28;20439;-61
2023/07/13 08:39:47;;;;;;;17.75;9.18;;;26.10;99.90;;;;;;4159727;28;20092;-61
2023/07/13 08:41:55;;;;;;;10.32;5.85;;;25.80;99.90;;;;;;4178630;28;20087;-60
2023/07/13 08:43:59;;;;;;;9.95;3.72;;;25.30;99.90;;;;;;4177564;28;20424;-60
2023/07/13 08:46:08;;;;;;;11.45;3.10;;;24.60;99.90;;;;;;4177863;28;20201;-61
2023/07/13 08:48:26;;;;;;;12.57;3.33;;;24.20;99.90;;;;;;4177113;28;20780;-60
2023/07/13 08:50:35;;;;;;;8.57;2.83;;;24.00;99.90;;;;;;4178368;28;20075;-61
2023/07/13 08:52:39;;;;;;;7.27;2.80;;;23.80;99.90;;;;;;4177051;28;20040;-61
2023/07/13 08:54:48;;;;;;;8.82;2.70;;;23.80;99.90;;;;;;4178315;28;20051;-61
2023/07/13 08:56:52;;;;;;;9.43;3.13;;;23.60;99.90;;;;;;4177116;28;20109;-61
2023/07/13 08:58:58;;;;;;;9.35;2.63;;;23.60;99.90;;;;;;4178216;28;20025;-63
2023/07/13 09:01:15;;;;;;;7.97;2.63;;;23.50;99.90;;;;;;4177137;28;20021;-62
2023/07/13 09:03:26;;;;;;;5.53;1.85;;;23.30;99.90;;;;;;4178044;28;20083;-61
2023/07/13 09:05:38;;;;;;;9.85;3.22;;;23.20;99.90;;;;;;4177111;28;20508;-62
2023/07/13 09:08:07;;;;;;;8.15;3.03;;;22.90;99.90;;;;;;4178108;28;20107;-62
2023/07/13 09:10:20;;;;;;;8.23;3.90;;;22.60;99.90;;;;;;4176175;28;20094;-62
2023/07/13 09:12:33;;;;;;;36.22;7.03;;;22.20;99.90;;;;;;4177984;28;20082;-61
2023/07/13 09:14:40;;;;;;;21.65;6.00;;;22.10;99.90;;;;;;4177405;28;20045;-61
2023/07/13 09:16:44;;;;;;;39.55;7.72;;;22.00;99.90;;;;;;4178245;28;20127;-61
2023/07/13 09:18:49;;;;;;;23.13;5.22;;;22.10;99.90;;;;;;4176099;28;20551;-62
2023/07/13 09:21:02;;;;;;;28.60;5.80;;;22.10;99.90;;;;;;4159758;28;20091;-61
2023/07/13 09:23:11;;;;;;;18.67;4.80;;;22.10;99.90;;;;;;4176818;28;20106;-61
2023/07/13 09:25:21;;;;;;;12.35;2.75;;;22.10;99.90;;;;;;4177274;28;20115;-63
2023/07/13 09:27:28;;;;;;;8.00;2.45;;;21.90;99.90;;;;;;4176773;28;20114;-62
2023/07/13 09:29:34;;;;;;;9.93;2.20;;;21.70;99.90;;;;;;4176865;28;20120;-61
2023/07/13 09:31:44;;;;;;;9.80;2.10;;;21.50;99.90;;;;;;4176580;28;20362;-60
2023/07/13 09:33:45;;;;;;;;;;;21.40;99.90;;;;;;4177146;28;20057;-59
2023/07/13 09:35:46;;;;;;;4.20;2.33;;;21.30;99.90;;;;;;4176608;28;19913;-64
2023/07/13 09:37:49;;;;;;;8.77;2.08;;;21.20;99.90;;;;;;4176798;28;20037;-61
2023/07/13 09:39:52;;;;;;;6.45;2.40;;;21.20;99.90;;;;;;4176604;28;20017;-61
2023/07/13 09:42:18;;;;;;;9.95;2.42;;;21.30;99.90;;;;;;4177433;28;20029;-59
2023/07/13 09:44:32;;;;;;;7.20;2.75;;;21.30;99.90;;;;;;4176536;28;20051;-60
2023/07/13 09:46:33;;;;;;;8.77;2.78;;;21.30;99.90;;;;;;4177109;28;20045;-60
2023/07/13 09:48:36;;;;;;;7.13;3.40;;;21.40;99.90;;;;;;4175054;28;20037;-60
2023/07/13 09:50:37;;;;;;;5.70;3.85;;;21.40;99.90;;;;;;4177505;28;20025;-61
2023/07/13 09:52:45;;;;;;;7.85;3.38;;;21.50;99.90;;;;;;4175812;28;20033;-60
2023/07/13 09:54:49;;;;;;;8.35;3.72;;;21.50;99.90;;;;;;4177333;28;20489;-59
2023/07/13 09:56:58;;;;;;;4.82;2.97;;;21.60;99.90;;;;;;4176582;28;20378;-61
2023/07/13 09:58:59;;;;;;;4.25;2.83;;;21.80;99.90;;;;;;4176192;28;20175;-61
2023/07/13 10:01:04;;;;;;;3.38;2.25;;;21.70;99.90;;;;;;4176976;28;20079;-62
2023/07/13 10:03:22;;;;;;;7.07;2.30;;;21.80;99.90;;;;;;4176596;28;20021;-61
2023/07/13 10:05:24;;;;;;;3.75;1.65;;;21.70;99.90;;;;;;4175850;28;20154;-73
2023/07/13 10:07:26;;;;;;;6.72;2.45;;;21.70;99.90;;;;;;4176475;28;20037;-70
2023/07/13 10:09:27;;;;;;;4.53;2.25;;;21.80;99.90;;;;;;4176214;28;20421;-67
2023/07/13 10:11:30;;;;;;;2.33;1.48;;;21.90;99.90;;;;;;4176410;28;20107;-70
2023/07/13 10:13:36;;;;;;;3.67;1.67;;;22.00;99.90;;;;;;4177077;28;20133;-66
2023/07/13 10:15:37;;;;;;;3.50;1.42;;;22.10;99.90;;;;;;4174982;28;20107;-61
2023/07/13 10:17:40;;;;;;;3.17;2.05;;;22.30;99.90;;;;;;4176740;28;20105;-67
2023/07/13 10:19:45;;;;;;;4.85;2.67;;;22.40;99.90;;;;;;4174618;28;20050;-60
2023/07/13 10:21:59;;;;;;;7.50;2.47;;;22.60;99.90;;;;;;4176515;28;20183;-61
2023/07/13 10:24:12;;;;;;;5.63;3.00;;;22.70;99.90;;;;;;4177029;28;20033;-62
2023/07/13 10:26:19;;;;;;;13.50;5.55;;;22.70;99.90;;;;;;4179753;28;20078;-60